Time;durP1;ratioP1;P1;durP2;ratioP2;P2;SDS_P1;SDS_P2;PMS_P1;PMS_P2;Temp;Humidity;BMP_temperature;BMP_pressure;BME280_temperature;BME280_humidity;BME280_pressure;Samples;Min_cycle;Max_cycle;Signal;HPM_P1;HPM_P2
2023/10/23 00:01:17;;;;;;;;;27.00;24.67;;;;;11.00;100.00;100667.16;4993519;28;46042;-73
2023/10/23 00:03:42;;;;;;;;;32.67;28.67;;;;;10.97;100.00;100673.09;4998563;28;45426;-72
2023/10/23 00:06:08;;;;;;;;;29.67;29.00;;;;;10.82;100.00;100653.28;4993583;28;45876;-73
2023/10/23 00:08:33;;;;;;;;;28.00;23.33;;;;;10.90;100.00;100661.28;4965165;28;46256;-72
2023/10/23 00:10:58;;;;;;;;;33.33;28.67;;;;;10.87;100.00;100661.72;4993636;28;46022;-72
2023/10/23 00:13:24;;;;;;;;;32.33;28.67;;;;;10.88;100.00;100664.25;4976406;28;45970;-75
2023/10/23 00:15:49;;;;;;;;;29.67;29.33;;;;;10.84;100.00;100670.34;4994813;28;45389;-74
2023/10/23 00:18:15;;;;;;;;;31.33;27.33;;;;;10.83;100.00;100660.47;4975978;28;47130;-74
2023/10/23 00:20:40;;;;;;;;;33.33;26.00;;;;;10.71;100.00;100636.41;4972250;28;46945;-74
2023/10/23 00:23:06;;;;;;;;;31.67;28.67;;;;;10.81;100.00;100657.94;4989414;28;45375;-75
2023/10/23 00:25:31;;;;;;;;;32.00;30.00;;;;;10.76;100.00;100658.56;4990686;28;45467;-71
2023/10/23 00:27:57;;;;;;;;;29.67;25.33;;;;;10.70;100.00;100653.94;4985599;28;45521;-73
2023/10/23 00:30:22;;;;;;;;;27.67;20.00;;;;;10.62;100.00;100648.66;4991882;28;45570;-74
2023/10/23 00:32:48;;;;;;;;;25.33;22.00;;;;;10.66;100.00;100660.03;4993683;28;45497;-73
2023/10/23 00:35:13;;;;;;;;;29.33;24.00;;;;;10.63;100.00;100654.97;4991266;28;45725;-73
2023/10/23 00:37:39;;;;;;;;;30.33;26.33;;;;;10.50;100.00;100640.22;4993456;28;45592;-73
2023/10/23 00:40:05;;;;;;;;;28.33;23.33;;;;;10.57;100.00;100649.28;4992700;28;46034;-73
2023/10/23 00:42:31;;;;;;;;;30.33;26.00;;;;;10.52;100.00;100656.44;4993183;28;46519;-73
2023/10/23 00:44:56;;;;;;;;;26.33;23.33;;;;;10.47;100.00;100650.78;4969197;28;45942;-72
2023/10/23 00:47:23;;;;;;;;;25.00;22.33;;;;;10.46;100.00;100649.06;4992955;28;45786;-74
2023/10/23 00:49:48;;;;;;;;;25.00;21.00;;;;;10.42;100.00;100646.75;4993175;28;45776;-74
2023/10/23 00:52:14;;;;;;;;;21.33;19.67;;;;;10.25;100.00;100618.91;4992923;28;45486;-74
2023/10/23 00:54:40;;;;;;;;;19.00;15.67;;;;;10.30;100.00;100639.31;4992937;28;45577;-73
2023/10/23 00:57:07;;;;;;;;;16.67;15.00;;;;;10.30;100.00;100640.19;4974447;28;45851;-73
2023/10/23 00:59:32;;;;;;;;;23.67;19.67;;;;;10.27;100.00;100640.59;4973061;28;45432;-74
2023/10/23 01:01:57;;;;;;;;;27.00;20.33;;;;;10.25;100.00;100639.94;4993209;28;45642;-74
2023/10/23 01:04:24;;;;;;;;;23.33;19.67;;;;;10.22;100.00;100637.63;4969396;28;45675;-74
2023/10/23 01:06:50;;;;;;;;;20.33;16.33;;;;;10.21;100.00;100636.81;4970076;28;45996;-73
2023/10/23 01:09:16;;;;;;;;;22.00;18.33;;;;;10.17;100.00;100645.66;4992446;28;46591;-74
2023/10/23 01:11:42;;;;;;;;;21.00;15.67;;;;;10.13;100.00;100644.38;4961167;28;46112;-74
2023/10/23 01:14:08;;;;;;;;;18.00;17.00;;;;;10.08;100.00;100643.09;4992501;28;46029;-73
2023/10/23 01:16:33;;;;;;;;;19.00;15.33;;;;;10.06;100.00;100642.47;4991519;28;47021;-73
2023/10/23 01:18:59;;;;;;;;;15.00;14.00;;;;;10.02;100.00;100635.72;4985817;28;46172;-74
2023/10/23 01:21:24;;;;;;;;;17.00;14.67;;;;;10.00;100.00;100624.13;4992583;28;45407;-73
2023/10/23 01:23:51;;;;;;;;;21.67;15.33;;;;;9.96;100.00;100617.38;4992696;28;45718;-74
2023/10/23 01:26:17;;;;;;;;;12.33;12.33;;;;;10.06;100.00;100642.47;4992968;28;45528;-74
2023/10/23 01:28:43;;;;;;;;;19.00;12.67;;;;;10.05;100.00;100629.81;4992273;28;45809;-73
2023/10/23 01:31:08;;;;;;;;;16.67;13.00;;;;;10.00;100.00;100620.53;4992249;28;45851;-74
2023/10/23 01:33:34;;;;;;;;;11.00;11.00;;;;;9.92;100.00;100605.13;4990508;28;45443;-73
2023/10/23 01:36:00;;;;;;;;;15.33;14.00;;;;;9.96;100.00;100613.78;4989880;28;46217;-74
2023/10/23 01:38:25;;;;;;;;;13.67;11.00;;;;;9.82;100.00;100593.72;4986251;28;45515;-73
2023/10/23 01:40:51;;;;;;;;;13.00;10.67;;;;;9.93;100.00;100615.03;4972130;28;45651;-74
2023/10/23 01:43:16;;;;;;;;;11.33;11.00;;;;;9.91;100.00;100614.44;4965641;28;45491;-73
2023/10/23 01:45:41;;;;;;;;;13.00;9.67;;;;;9.93;100.00;100608.75;4973078;28;45422;-74
2023/10/23 01:48:07;;;;;;;;;14.00;10.00;;;;;9.92;100.00;100605.13;4991957;28;45540;-73
2023/10/23 01:50:32;;;;;;;;;14.67;12.33;;;;;9.87;100.00;100602.19;4992666;28;45668;-72
2023/10/23 01:52:58;;;;;;;;;10.00;10.00;;;;;9.88;100.00;100607.47;4991785;28;45680;-73
2023/10/23 01:55:23;;;;;;;;;6.33;6.33;;;;;9.90;100.00;100601.78;4989921;28;45470;-73
2023/10/23 01:57:48;;;;;;;;;12.33;9.67;;;;;9.87;100.00;100603.03;4991128;28;45843;-72
2023/10/23 02:00:14;;;;;;;;;18.00;11.67;;;;;9.83;100.00;100600.91;4991059;28;45434;-72
2023/10/23 02:02:40;;;;;;;;;18.00;12.33;;;;;9.80;100.00;100593.09;4975218;28;45875;-72
2023/10/23 02:05:06;;;;;;;;;9.67;9.67;;;;;9.78;100.00;100593.31;4976123;28;45702;-73
2023/10/23 02:07:31;;;;;;;;;14.00;11.33;;;;;9.75;100.00;100571.00;4987470;28;46902;-72
2023/10/23 02:09:57;;;;;;;;;11.00;9.00;;;;;9.66;100.00;100567.59;4973280;28;45475;-74
2023/10/23 02:12:23;;;;;;;;;15.00;11.33;;;;;9.75;100.00;100576.47;4991433;28;45551;-74
2023/10/23 02:14:52;;;;;;;;;10.33;10.33;;;;;9.74;100.00;100585.72;4972186;28;46865;-75
2023/10/23 02:17:21;;;;;;;;;9.00;8.00;;;;;9.64;100.00;100576.03;4990644;28;46233;-75
2023/10/23 02:19:47;;;;;;;;;14.00;8.00;;;;;9.72;100.00;100597.72;4991032;28;46541;-74
2023/10/23 02:22:13;;;;;;;;;15.00;9.00;;;;;9.67;100.00;100588.44;4968407;28;45746;-75
2023/10/23 02:24:38;;;;;;;;;13.00;11.00;;;;;9.64;100.00;100589.72;4973433;28;45626;-75
2023/10/23 02:27:04;;;;;;;;;7.67;7.67;;;;;9.66;100.00;100590.34;4992042;28;45622;-74
2023/10/23 02:29:29;;;;;;;;;12.00;10.33;;;;;9.59;100.00;100584.00;4986003;28;45421;-71
2023/10/23 02:31:55;;;;;;;;;9.00;7.33;;;;;9.61;100.00;100581.91;4985469;28;45942;-73
2023/10/23 02:34:21;;;;;;;;;12.67;10.33;;;;;9.59;100.00;100584.00;4989053;28;46358;-72
2023/10/23 02:36:46;;;;;;;;;10.67;7.67;;;;;9.52;100.00;100583.13;4973784;28;46568;-72
2023/10/23 02:39:12;;;;;;;;;14.67;11.00;;;;;9.51;100.00;100587.75;4970988;28;45565;-73
2023/10/23 02:41:37;;;;;;;;;10.00;8.00;;;;;9.49;100.00;100573.44;4967924;28;45683;-72
2023/10/23 02:44:04;;;;;;;;;14.00;10.67;;;;;9.42;100.00;100560.81;4986442;28;45578;-73
2023/10/23 02:46:31;;;;;;;;;7.00;6.00;;;;;9.49;100.00;100572.59;4991183;28;46196;-74
2023/10/23 02:48:56;;;;;;;;;12.67;10.00;;;;;9.27;100.00;100525.38;4991639;28;45520;-72
2023/10/23 02:51:22;;;;;;;;;10.00;9.67;;;;;9.50;100.00;100566.91;4970865;28;45495;-73
2023/10/23 02:53:47;;;;;;;;;8.67;8.67;;;;;9.39;100.00;100558.47;4982825;28;45460;-71
2023/10/23 02:56:13;;;;;;;;;11.67;10.00;;;;;9.49;100.00;100567.97;4990786;28;46206;-72
2023/10/23 02:58:39;;;;;;;;;10.67;9.67;;;;;9.51;100.00;100570.50;4991203;28;45675;-72
2023/10/23 03:01:20;;;;;;;;;8.00;5.00;;;;;9.52;100.00;100572.19;4990793;28;45818;-72
2023/10/23 03:03:46;;;;;;;;;8.67;8.67;;;;;9.53;100.00;100565.66;4989986;28;45497;-73
2023/10/23 03:06:11;;;;;;;;;10.33;8.00;;;;;9.52;100.00;100553.88;4990411;28;45506;-72
2023/10/23 03:08:37;;;;;;;;;18.00;12.33;;;;;9.52;100.00;100558.50;4991247;28;45815;-71
2023/10/23 03:11:02;;;;;;;;;14.00;10.00;;;;;9.54;100.00;100565.44;4974149;28;46054;-72
2023/10/23 03:13:28;;;;;;;;;8.33;8.33;;;;;9.54;100.00;100561.88;4991401;28;46462;-72
2023/10/23 03:15:53;;;;;;;;;8.33;8.33;;;;;9.54;100.00;100561.88;4990898;28;45676;-75
2023/10/23 03:18:19;;;;;;;;;10.67;7.33;;;;;9.53;100.00;100557.44;4957526;28;45865;-73
2023/10/23 03:20:44;;;;;;;;;10.00;7.00;;;;;9.49;100.00;100551.56;4988546;28;45838;-75
2023/10/23 03:23:10;;;;;;;;;10.33;9.00;;;;;9.50;100.00;100560.59;4981456;28;45480;-75
2023/10/23 03:25:35;;;;;;;;;13.67;10.00;;;;;9.50;100.00;100545.00;4987124;28;45583;-73
2023/10/23 03:28:00;;;;;;;;;14.00;11.00;;;;;9.43;100.00;100529.63;4990829;28;45673;-75
2023/10/23 03:30:26;;;;;;;;;12.67;9.00;;;;;9.50;100.00;100534.06;4973638;28;45928;-74
2023/10/23 03:32:51;;;;;;;;;10.00;8.67;;;;;9.46;100.00;100534.69;4990389;28;45324;-74
2023/10/23 03:35:17;;;;;;;;;13.67;10.00;;;;;9.42;100.00;100528.78;4991031;28;45605;-74
2023/10/23 03:37:42;;;;;;;;;10.67;9.33;;;;;9.42;100.00;100527.97;4990013;28;45714;-74
2023/10/23 03:40:10;;;;;;;;;14.00;10.00;;;;;9.37;100.00;100531.28;4991145;28;45759;-75
2023/10/23 03:42:36;;;;;;;;;13.33;10.00;;;;;9.37;100.00;100528.53;4985662;28;45533;-74
2023/10/23 03:45:01;;;;;;;;;10.67;8.33;;;;;9.40;100.00;100535.50;4991242;28;45804;-75
2023/10/23 03:47:27;;;;;;;;;8.67;8.67;;;;;9.39;100.00;100533.84;4991918;28;45441;-71
2023/10/23 03:49:52;;;;;;;;;8.00;8.00;;;;;9.32;100.00;100518.22;4991026;28;45675;-72
2023/10/23 03:52:17;;;;;;;;;11.33;9.00;;;;;9.35;100.00;100520.53;4990469;28;45757;-72
2023/10/23 03:54:43;;;;;;;;;12.33;9.67;;;;;9.34;100.00;100527.09;4989988;28;46484;-72
2023/10/23 03:57:08;;;;;;;;;9.67;8.00;;;;;9.34;100.00;100520.75;4969153;28;45461;-72
2023/10/23 03:59:33;;;;;;;;;11.67;9.00;;;;;9.34;100.00;100524.34;4988741;28;45689;-72
2023/10/23 04:01:59;;;;;;;;;10.00;8.33;;;;;9.30;100.00;100511.28;4996473;28;45533;-72
2023/10/23 04:04:24;;;;;;;;;9.00;6.33;;;;;9.33;100.00;100514.44;4985566;28;47186;-71
2023/10/23 04:06:50;;;;;;;;;9.33;6.00;;;;;9.34;100.00;100504.34;4988340;28;45770;-72
2023/10/23 04:09:15;;;;;;;;;7.33;7.00;;;;;9.27;100.00;100493.38;4994459;28;45937;-72
2023/10/23 04:11:41;;;;;;;;;9.33;8.33;;;;;9.36;100.00;100507.72;4993769;28;45656;-72
2023/10/23 04:14:08;;;;;;;;;7.00;7.00;;;;;9.28;100.00;100489.59;4975157;28;47467;-72
2023/10/23 04:16:33;;;;;;;;;10.67;10.00;;;;;9.21;100.00;100469.59;4993577;28;45518;-72
2023/10/23 04:18:59;;;;;;;;;7.67;7.67;;;;;9.34;100.00;100496.97;4994163;28;45507;-72
2023/10/23 04:21:24;;;;;;;;;8.00;7.00;;;;;9.33;100.00;100494.47;4993949;28;45632;-72
2023/10/23 04:23:50;;;;;;;;;7.67;6.33;;;;;9.38;100.00;100488.34;4993461;28;46368;-71
2023/10/23 04:26:15;;;;;;;;;14.00;10.00;;;;;9.33;100.00;100476.13;4993221;28;45716;-74
2023/10/23 04:28:41;;;;;;;;;7.00;7.00;;;;;9.40;100.00;100481.63;4993749;28;45736;-72
2023/10/23 04:31:06;;;;;;;;;11.00;9.67;;;;;9.40;100.00;100480.78;4967705;28;47271;-73
2023/10/23 04:33:32;;;;;;;;;8.33;6.00;;;;;9.44;100.00;100471.94;4988154;28;45627;-73
2023/10/23 04:35:59;;;;;;;;;6.50;5.50;;;;;9.47;100.00;100482.47;4993253;28;45586;-73
2023/10/23 04:38:25;;;;;;;;;6.00;3.33;;;;;9.48;100.00;100486.06;4993788;28;45462;-72
2023/10/23 04:40:53;;;;;;;;;10.00;8.00;;;;;9.50;100.00;100481.22;4973801;28;45533;-73
2023/10/23 04:43:19;;;;;;;;;9.33;7.33;;;;;9.52;100.00;100476.38;4991861;28;48227;-73
2023/10/23 04:45:44;;;;;;;;;11.00;6.33;;;;;9.44;100.00;100451.94;4993677;28;45885;-71
2023/10/23 04:48:10;;;;;;;;;10.00;6.67;;;;;9.53;100.00;100470.69;4986991;28;45838;-73
2023/10/23 04:50:39;;;;;;;;;9.33;7.00;;;;;9.57;100.00;100471.13;4981791;28;45442;-73
2023/10/23 04:53:06;;;;;;;;;7.67;6.67;;;;;9.59;100.00;100473.66;4990378;28;45821;-72
2023/10/23 04:55:33;;;;;;;;;6.67;6.67;;;;;9.59;100.00;100466.28;4991644;28;45929;-71
2023/10/23 04:58:02;;;;;;;;;3.67;3.67;;;;;9.57;100.00;100465.66;4973296;28;45525;-72
2023/10/23 05:00:28;;;;;;;;;7.00;6.00;;;;;9.46;100.00;100441.63;4989022;28;45746;-72
2023/10/23 05:02:53;;;;;;;;;8.00;5.00;;;;;9.54;100.00;100455.94;4997299;28;47091;-73
2023/10/23 05:05:19;;;;;;;;;5.00;5.00;;;;;9.56;100.00;100454.91;4997057;28;45382;-72
2023/10/23 05:07:44;;;;;;;;;9.00;6.00;;;;;9.51;100.00;100444.59;4992063;28;45763;-71
2023/10/23 05:10:11;;;;;;;;;4.00;4.00;;;;;9.52;100.00;100440.78;4987352;28;45925;-77
2023/10/23 05:12:37;;;;;;;;;8.67;6.00;;;;;9.50;100.00;100432.78;4991741;28;45463;-75
2023/10/23 05:15:02;;;;;;;;;5.00;4.00;;;;;9.45;100.00;100423.53;4991730;28;45992;-75
2023/10/23 05:17:28;;;;;;;;;5.00;5.00;;;;;9.53;100.00;100431.53;4988243;28;45426;-77
2023/10/23 05:19:53;;;;;;;;;4.00;4.00;;;;;9.50;100.00;100421.00;4984907;28;45956;-73
2023/10/23 05:22:19;;;;;;;;;6.00;5.00;;;;;9.51;100.00;100428.16;4964167;28;45999;-73
2023/10/23 05:24:47;;;;;;;;;2.33;1.00;;;;;9.52;100.00;100418.88;4970808;28;45812;-74
2023/10/23 05:27:14;;;;;;;;;5.33;5.33;;;;;9.55;100.00;100423.97;4985195;28;45657;-74
2023/10/23 05:29:40;;;;;;;;;3.67;3.67;;;;;9.52;100.00;100410.66;4990321;28;45884;-73
2023/10/23 05:32:06;;;;;;;;;7.33;5.00;;;;;9.53;100.00;100404.97;4993017;28;46150;-73
2023/10/23 05:34:33;;;;;;;;;7.00;6.00;;;;;9.56;100.00;100414.66;4992483;28;45361;-75
2023/10/23 05:36:58;;;;;;;;;5.00;3.67;;;;;9.55;100.00;100413.00;4992055;28;45548;-73
2023/10/23 05:39:23;;;;;;;;;5.00;4.33;;;;;9.53;100.00;100412.34;4992669;28;45776;-76
2023/10/23 05:41:49;;;;;;;;;6.00;5.00;;;;;9.50;100.00;100390.88;4976728;28;46354;-74
2023/10/23 05:44:14;;;;;;;;;5.00;3.00;;;;;9.53;100.00;100393.19;4992654;28;45511;-74
2023/10/23 05:46:40;;;;;;;;;7.00;5.67;;;;;9.60;100.00;100404.16;4991240;28;45457;-76
2023/10/23 05:49:05;;;;;;;;;2.00;2.00;;;;;9.53;100.00;100390.47;4992944;28;45874;-74
2023/10/23 05:51:31;;;;;;;;;6.67;5.00;;;;;9.63;100.00;100392.78;4975282;28;46006;-76
2023/10/23 05:53:57;;;;;;;;;5.00;4.00;;;;;9.67;100.00;100383.06;4979788;28;45522;-77
2023/10/23 05:56:22;;;;;;;;;3.67;3.33;;;;;9.67;100.00;100388.53;4993760;28;45493;-78
2023/10/23 05:58:48;;;;;;;;;4.33;4.33;;;;;9.76;100.00;100381.81;4991776;28;45678;-76
2023/10/23 06:01:14;;;;;;;;;5.67;4.00;;;;;9.67;100.00;100362.03;4992626;28;46282;-77
2023/10/23 06:03:40;;;;;;;;;5.33;5.33;;;;;9.81;100.00;100375.69;4971639;28;45531;-77
2023/10/23 06:06:06;;;;;;;;;6.00;4.00;;;;;9.84;100.00;100378.84;4984774;28;45406;-76
2023/10/23 06:08:31;;;;;;;;;6.00;5.00;;;;;9.88;100.00;100382.84;4974757;28;46998;-76
2023/10/23 06:10:57;;;;;;;;;7.00;6.33;;;;;9.80;100.00;100355.66;4990388;28;46299;-77
2023/10/23 06:13:22;;;;;;;;;6.00;6.00;;;;;9.90;100.00;100372.50;4984547;28;45597;-76
2023/10/23 06:15:48;;;;;;;;;5.00;4.00;;;;;9.98;100.00;100378.81;4991857;28;45526;-76
2023/10/23 06:18:13;;;;;;;;;3.33;2.00;;;;;9.99;100.00;100375.03;4984033;28;45585;-79
2023/10/23 06:20:39;;;;;;;;;8.00;6.00;;;;;9.96;100.00;100365.34;4992304;28;46020;-78
2023/10/23 06:23:04;;;;;;;;;7.00;5.00;;;;;10.00;100.00;100372.09;4993242;28;45868;-77
2023/10/23 06:25:30;;;;;;;;;6.33;3.00;;;;;10.00;100.00;100361.13;4974938;28;45568;-76
2023/10/23 06:27:57;;;;;;;;;4.00;3.67;;;;;10.02;100.00;100360.91;4991723;28;45548;-78
2023/10/23 06:30:22;;;;;;;;;4.00;3.67;;;;;10.04;100.00;100354.16;4987200;28;45828;-78
2023/10/23 06:32:48;;;;;;;;;7.00;5.00;;;;;10.03;100.00;100357.94;4989533;28;45767;-75
2023/10/23 06:35:16;;;;;;;;;6.00;2.33;;;;;10.05;100.00;100360.47;4971727;28;45380;-78
2023/10/23 06:37:42;;;;;;;;;6.33;4.67;;;;;10.08;100.00;100349.91;4980493;28;45261;-76
2023/10/23 06:40:08;;;;;;;;;4.00;3.00;;;;;10.05;100.00;100342.13;4966584;28;46303;-77
2023/10/23 06:42:34;;;;;;;;;4.00;4.00;;;;;10.16;100.00;100350.75;4989879;28;45924;-74
2023/10/23 06:45:00;;;;;;;;;3.33;2.33;;;;;10.19;100.00;100361.25;4972073;28;45718;-73
2023/10/23 06:47:26;;;;;;;;;3.67;3.67;;;;;10.24;100.00;100351.34;4990212;28;45493;-73
2023/10/23 06:49:52;;;;;;;;;5.33;3.00;;;;;10.29;100.00;100345.22;5005235;28;46715;-73
2023/10/23 06:52:18;;;;;;;;;5.33;4.00;;;;;10.28;100.00;100350.91;4997856;28;45515;-72
2023/10/23 06:54:43;;;;;;;;;4.33;4.33;;;;;10.29;100.00;100347.94;4986233;28;45474;-74
2023/10/23 06:57:09;;;;;;;;;5.67;4.00;;;;;10.31;100.00;100336.78;4987289;28;45841;-70
2023/10/23 06:59:35;;;;;;;;;7.00;7.00;;;;;10.36;100.00;100342.47;5340038;23;46538;-75
2023/10/23 07:02:02;;;;;;;;;8.00;7.00;;;;;10.41;100.00;100343.50;4959639;28;45480;-77
2023/10/23 07:04:28;;;;;;;;;5.33;5.33;;;;;10.51;100.00;100339.44;4953973;28;45879;-74
2023/10/23 07:06:55;;;;;;;;;4.00;4.00;;;;;10.56;100.00;100347.88;4951736;28;45708;-70
2023/10/23 07:09:21;;;;;;;;;8.00;5.00;;;;;10.63;100.00;100337.72;4940563;28;45837;-68
2023/10/23 07:11:50;;;;;;;;;6.67;4.00;;;;;10.63;100.00;100324.00;4940239;28;45730;-75
2023/10/23 07:14:16;;;;;;;;;7.33;4.67;;;;;10.75;100.00;100341.44;4947231;28;45808;-75
2023/10/23 07:16:43;;;;;;;;;5.00;2.33;;;;;10.74;100.00;100317.78;4955084;28;45589;-73
2023/10/23 07:19:11;;;;;;;;;4.33;3.33;;;;;10.90;100.00;100345.78;4952169;28;47134;-77
2023/10/23 07:21:36;;;;;;;;;4.00;4.00;;;;;10.94;100.00;100344.25;4935004;28;45957;-77
2023/10/23 07:24:02;;;;;;;;;6.00;4.00;;;;;10.99;100.00;100340.84;4964612;28;45332;-72
2023/10/23 07:26:28;;;;;;;;;6.67;4.00;;;;;10.99;100.00;100341.72;4952751;28;45546;-77
2023/10/23 07:28:54;;;;;;;;;3.33;2.00;;;;;11.03;100.00;100340.22;4953986;28;45726;-78
2023/10/23 07:31:19;;;;;;;;;5.67;3.00;;;;;11.02;100.00;100324.81;4960684;28;45316;-78
2023/10/23 07:33:44;;;;;;;;;5.00;3.33;;;;;11.16;100.00;100324.69;4952216;28;45544;-77
2023/10/23 07:36:12;;;;;;;;;5.00;3.67;;;;;11.20;100.00;100324.03;4955838;28;45705;-76
2023/10/23 07:38:40;;;;;;;;;6.00;4.67;;;;;11.22;100.00;100329.28;4953596;28;45792;-77
2023/10/23 07:41:06;;;;;;;;;5.67;3.00;;;;;11.24;100.00;100318.91;4954045;28;45492;-70
2023/10/23 07:43:31;;;;;;;;;3.33;3.33;;;;;11.31;100.00;100311.47;4928121;28;45416;-70
2023/10/23 07:45:57;;;;;;;;;2.33;2.33;;;;;11.39;100.00;100316.69;4956324;28;45758;-70
2023/10/23 07:48:24;;;;;;;;;5.33;4.00;;;;;11.29;100.00;100286.16;4956942;28;45498;-69
2023/10/23 07:50:50;;;;;;;;;4.00;4.00;;;;;11.36;100.00;100280.59;4956377;28;45412;-70
2023/10/23 07:53:15;;;;;;;;;3.00;3.00;;;;;11.50;100.00;100309.63;4938798;28;45700;-68
2023/10/23 07:55:40;;;;;;;;;4.33;3.00;;;;;11.56;100.00;100307.88;4966104;28;45658;-71
2023/10/23 07:58:06;;;;;;;;;3.00;2.00;;;;;11.69;100.00;100302.25;4950895;28;46816;-71
2023/10/23 08:00:32;;;;;;;;;6.67;5.00;;;;;11.79;100.00;100299.78;4954413;28;46021;-74
2023/10/23 08:02:57;;;;;;;;;5.33;3.00;;;;;11.79;100.00;100297.03;4965788;28;45487;-73
2023/10/23 08:05:23;;;;;;;;;4.00;2.33;;;;;11.78;100.00;100287.16;4943843;28;47252;-74
2023/10/23 08:07:48;;;;;;;;;4.67;1.33;;;;;11.89;100.00;100293.78;4955923;28;45944;-73
2023/10/23 08:10:14;;;;;;;;;5.67;5.00;;;;;11.91;100.00;100294.38;4956684;28;45511;-74
2023/10/23 08:12:40;;;;;;;;;4.67;4.33;;;;;11.97;100.00;100288.00;4966209;28;45712;-72
2023/10/23 08:15:06;;;;;;;;;7.67;3.00;;;;;11.99;100.00;100285.03;4958811;28;45491;-71
2023/10/23 08:17:31;;;;;;;;;5.00;4.00;;;;;11.91;100.00;100266.06;4935049;28;47220;-73
2023/10/23 08:19:57;;;;;;;;;4.67;4.33;;;;;12.04;100.00;100279.69;4932720;28;45559;-72
2023/10/23 08:22:23;;;;;;;;;3.67;3.67;;;;;12.05;100.00;100273.13;4939088;28;45851;-73
2023/10/23 08:24:48;;;;;;;;;2.33;2.33;;;;;12.07;100.00;100276.47;4937331;28;46949;-74
2023/10/23 08:27:13;;;;;;;;;4.00;4.00;;;;;12.10;100.00;100280.69;4954273;28;47799;-73
2023/10/23 08:29:39;;;;;;;;;6.67;3.00;;;;;12.09;100.00;100265.25;4947915;28;45466;-73
2023/10/23 08:32:04;;;;;;;;;5.00;3.33;;;;;12.11;100.00;100263.09;4950897;28;45810;-73
2023/10/23 08:34:30;;;;;;;;;8.33;6.33;;;;;12.06;100.00;100246.47;4954487;28;45480;-73
2023/10/23 08:36:55;;;;;;;;;7.00;4.67;;;;;12.22;100.00;100262.34;4954980;28;45568;-73
2023/10/23 08:39:20;;;;;;;;;6.67;5.67;;;;;12.29;100.00;100264.97;4959814;28;45787;-74
2023/10/23 08:41:48;;;;;;;;;3.33;2.67;;;;;12.35;100.00;100258.56;4963002;28;45492;-73
2023/10/23 08:44:17;;;;;;;;;3.00;3.00;;;;;12.39;100.00;100267.19;4954063;28;45479;-75
2023/10/23 08:46:43;;;;;;;;;2.33;2.33;;;;;12.46;100.00;100251.44;4950473;28;45804;-76
2023/10/23 08:49:08;;;;;;;;;5.00;1.67;;;;;12.49;100.00;100246.31;4955287;28;45545;-77
2023/10/23 08:51:35;;;;;;;;;4.33;3.33;;;;;12.53;100.00;100253.00;4955855;28;45647;-73
2023/10/23 08:54:03;;;;;;;;;2.67;2.67;;;;;12.57;100.00;100253.38;4938009;28;46795;-77
2023/10/23 08:56:36;;;;;;;;;5.33;3.00;;;;;12.73;100.00;100251.03;4956487;28;46620;-77
2023/10/23 08:59:02;;;;;;;;;5.00;3.00;;;;;12.80;100.00;100247.13;4943636;28;45692;-77
2023/10/23 09:01:28;;;;;;;;;4.00;2.33;;;;;12.78;100.00;100243.75;4957559;28;46046;-79
2023/10/23 09:03:56;;;;;;;;;3.00;2.00;;;;;12.88;100.00;100241.25;4957078;28;45479;-76
2023/10/23 09:06:22;;;;;;;;;2.67;1.67;;;;;12.87;100.00;100235.97;4957376;28;46784;-75
2023/10/23 09:08:47;;;;;;;;;5.33;3.67;;;;;12.86;100.00;100231.56;4935782;28;45496;-75
2023/10/23 09:11:12;;;;;;;;;3.00;2.00;;;;;12.80;100.00;100218.72;4949480;28;45989;-76
2023/10/23 09:13:40;;;;;;;;;3.67;2.33;;;;;12.80;100.00;100214.09;4957839;28;45585;-76
2023/10/23 09:16:06;;;;;;;;;6.00;4.33;;;;;12.79;100.00;100211.56;4956679;28;45614;-74
2023/10/23 09:18:33;;;;;;;;;7.00;4.00;;;;;12.77;100.00;100203.56;4933073;28;45534;-75
2023/10/23 09:20:59;;;;;;;;;4.67;3.00;;;;;12.76;100.00;100207.38;4952457;28;45423;-75
2023/10/23 09:23:25;;;;;;;;;8.67;3.67;;;;;12.78;100.00;100202.47;4945267;28;46010;-75
2023/10/23 09:25:56;;;;;;;;;7.33;4.33;;;;;12.69;100.00;100203.88;4960902;28;45955;-73
2023/10/23 09:28:22;;;;;;;;;10.33;5.67;;;;;12.75;100.00;100202.94;4955244;28;45898;-76
2023/10/23 09:30:47;;;;;;;;;0.00;0.00;;;;;12.83;100.00;100207.25;4954653;28;45455;-74
2023/10/23 09:33:14;;;;;;;;;4.33;3.33;;;;;12.86;100.00;100204.88;4955015;28;45779;-78
2023/10/23 09:35:40;;;;;;;;;1.67;1.67;;;;;12.88;100.00;100201.88;4964771;28;45914;-72
2023/10/23 09:38:13;;;;;;;;;3.00;2.00;;;;;12.71;100.00;100177.00;4936002;28;45486;-70
2023/10/23 09:40:38;;;;;;;;;7.33;2.67;;;;;12.87;100.00;100194.69;4954473;28;45691;-71
2023/10/23 09:43:06;;;;;;;;;2.33;2.33;;;;;12.89;100.00;100189.81;4954338;28;45446;-72
2023/10/23 09:45:32;;;;;;;;;6.00;3.67;;;;;12.94;100.00;100186.34;4954419;28;46119;-71
2023/10/23 09:48:01;;;;;;;;;4.00;4.00;;;;;12.89;100.00;100185.13;4953997;28;45663;-70
2023/10/23 09:50:27;;;;;;;;;6.00;3.67;;;;;12.73;100.00;100188.59;4955011;28;45549;-71
2023/10/23 09:52:56;;;;;;;;;4.67;1.00;;;;;12.67;100.00;100175.78;4954433;28;45427;-69
2023/10/23 09:55:26;;;;;;;;;5.67;4.67;;;;;12.56;100.00;100173.84;4952565;28;45756;-77
2023/10/23 09:57:54;;;;;;;;;5.00;3.67;;;;;12.60;100.00;100175.88;4956030;28;45601;-78
2023/10/23 10:00:20;;;;;;;;;7.00;5.00;;;;;12.51;100.00;100153.41;4952574;28;45870;-70
2023/10/23 10:02:54;;;;;;;;;7.33;5.33;;;;;12.66;100.00;100169.44;4961933;28;45538;-70
2023/10/23 10:05:28;;;;;;;;;5.33;4.00;;;;;12.75;100.00;100164.41;4952798;28;46047;-70
2023/10/23 10:08:04;;;;;;;;;8.33;5.33;;;;;12.73;100.00;100161.06;4942312;28;45814;-70
2023/10/23 10:10:32;;;;;;;;;7.67;5.33;;;;;12.73;100.00;100141.00;4939599;28;45577;-71
2023/10/23 10:12:58;;;;;;;;;6.33;5.33;;;;;12.83;100.00;100147.56;4940744;28;45516;-70
2023/10/23 10:15:24;;;;;;;;;8.33;6.33;;;;;12.89;100.00;100135.59;4949167;28;46239;-75
2023/10/23 10:17:51;;;;;;;;;2.67;1.67;;;;;12.93;100.00;100129.63;4943752;28;45895;-72
2023/10/23 10:20:21;;;;;;;;;8.67;5.33;;;;;13.03;100.00;100133.44;4935116;28;45663;-71
2023/10/23 10:22:56;;;;;;;;;4.33;4.33;;;;;13.11;100.00;100123.97;4924444;28;45683;-70
2023/10/23 10:25:23;;;;;;;;;3.00;3.00;;;;;13.14;100.00;100125.41;4944433;28;48108;-71
2023/10/23 10:27:57;;;;;;;;;8.33;6.00;;;;;13.15;100.00;100122.41;4937173;28;45753;-71
2023/10/23 10:30:42;;;;;;;;;7.00;6.67;;;;;13.12;100.00;100117.41;4940054;28;45410;-70
2023/10/23 10:33:09;;;;;;;;;5.67;5.67;;;;;13.13;100.00;100113.56;4951496;28;45391;-70
2023/10/23 10:35:34;;;;;;;;;4.00;4.00;;;;;13.23;100.00;100105.53;4952936;28;46749;-70
2023/10/23 10:38:00;;;;;;;;;8.00;5.33;;;;;13.23;100.00;100108.28;4952738;28;45712;-70
2023/10/23 10:40:26;;;;;;;;;8.00;4.00;;;;;13.21;100.00;100104.09;4953310;28;45454;-73
2023/10/23 10:42:51;;;;;;;;;5.67;4.00;;;;;13.21;100.00;100110.44;4943969;28;45973;-71
2023/10/23 10:45:17;;;;;;;;;6.33;4.33;;;;;13.21;100.00;100107.69;4952272;28;45536;-71
2023/10/23 10:47:53;;;;;;;;;5.00;4.33;;;;;13.18;100.00;100110.91;4955383;28;45727;-70
2023/10/23 10:50:34;;;;;;;;;5.33;5.33;;;;;13.17;100.00;100103.75;4952575;28;45579;-72
2023/10/23 10:53:02;;;;;;;;;4.33;3.00;;;;;13.23;100.00;100104.69;4948695;28;45660;-71
2023/10/23 10:55:28;;;;;;;;;8.00;8.00;;;;;13.24;100.00;100109.13;4952468;28;46495;-73
2023/10/23 10:57:55;;;;;;;;;5.67;5.67;;;;;13.16;100.00;100106.72;4951583;28;45487;-72
2023/10/23 11:00:22;;;;;;;;;6.67;4.67;;;;;13.17;100.00;100105.66;4946273;28;45684;-73
2023/10/23 11:02:49;;;;;;;;;6.00;5.00;;;;;13.17;100.00;100105.66;4949049;28;45752;-71
2023/10/23 11:05:14;;;;;;;;;5.33;5.33;;;;;13.19;100.00;100098.84;4952821;28;45921;-71
2023/10/23 11:07:40;;;;;;;;;7.00;5.33;;;;;13.16;100.00;100095.72;4953353;28;45578;-71
2023/10/23 11:10:06;;;;;;;;;4.67;3.33;;;;;13.18;100.00;100083.38;4949132;28;45410;-70
2023/10/23 11:12:32;;;;;;;;;5.00;3.67;;;;;13.18;100.00;100083.38;4956634;28;45813;-73